sensor_id;sensor_type;location;lat;lon;timestamp;pressure;altitude;pressure_sealevel;temperature;humidity
41654;BME280;68687;52.030;7.110;2023-05-10T00:02:20;100012.03;;;13.34;100.00
41654;BME280;68687;52.030;7.110;2023-05-10T00:04:45;100007.84;;;13.44;100.00
41654;BME280;68687;52.030;7.110;2023-05-10T00:07:10;100004.56;;;13.36;100.00
41654;BME280;68687;52.030;7.110;2023-05-10T00:09:35;100006.88;;;13.32;100.00
41654;BME280;68687;52.030;7.110;2023-05-10T00:12:01;100009.56;;;13.32;100.00
41654;BME280;68687;52.030;7.110;2023-05-10T00:14:26;100005.44;;;13.29;100.00
41654;BME280;68687;52.030;7.110;2023-05-10T00:16:52;100005.22;;;13.31;100.00
41654;BME280;68687;52.030;7.110;2023-05-10T00:19:17;100001.03;;;13.35;100.00
41654;BME280;68687;52.030;7.110;2023-05-10T00:21:42;100004.41;;;13.30;100.00
41654;BME280;68687;52.030;7.110;2023-05-10T00:24:08;100011.38;;;13.38;100.00
41654;BME280;68687;52.030;7.110;2023-05-10T00:26:33;100006.88;;;13.32;100.00
41654;BME280;68687;52.030;7.110;2023-05-10T00:28:58;100011.94;;;13.15;100.00
41654;BME280;68687;52.030;7.110;2023-05-10T00:31:23;100011.31;;;13.20;100.00
41654;BME280;68687;52.030;7.110;2023-05-10T00:33:49;100011.88;;;13.28;100.00
41654;BME280;68687;52.030;7.110;2023-05-10T00:36:17;100009.84;;;13.11;100.00
41654;BME280;68687;52.030;7.110;2023-05-10T00:38:42;100008.19;;;13.10;100.00
41654;BME280;68687;52.030;7.110;2023-05-10T00:41:08;100016.06;;;13.11;100.00
41654;BME280;68687;52.030;7.110;2023-05-10T00:43:33;100013.84;;;13.02;100.00
41654;BME280;68687;52.030;7.110;2023-05-10T00:45:59;100014.31;;;12.92;100.00
41654;BME280;68687;52.030;7.110;2023-05-10T00:48:25;100023.69;;;12.69;100.00
41654;BME280;68687;52.030;7.110;2023-05-10T00:50:50;100024.56;;;12.50;100.00
41654;BME280;68687;52.030;7.110;2023-05-10T00:53:15;100024.16;;;12.53;100.00
41654;BME280;68687;52.030;7.110;2023-05-10T00:55:44;100025.41;;;12.44;100.00
41654;BME280;68687;52.030;7.110;2023-05-10T00:58:09;100023.78;;;12.30;100.00
41654;BME280;68687;52.030;7.110;2023-05-10T01:00:35;100025.44;;;12.31;100.00
41654;BME280;68687;52.030;7.110;2023-05-10T01:03:05;100031.03;;;12.36;100.00
41654;BME280;68687;52.030;7.110;2023-05-10T01:05:33;100024.38;;;12.32;100.00
41654;BME280;68687;52.030;7.110;2023-05-10T01:07:58;100024.38;;;12.32;100.00
41654;BME280;68687;52.030;7.110;2023-05-10T01:10:24;100031.25;;;12.34;100.00
41654;BME280;68687;52.030;7.110;2023-05-10T01:12:49;100032.47;;;12.32;100.00
41654;BME280;68687;52.030;7.110;2023-05-10T01:15:18;100031.88;;;12.36;100.00
41654;BME280;68687;52.030;7.110;2023-05-10T01:17:46;100029.38;;;12.28;100.00
41654;BME280;68687;52.030;7.110;2023-05-10T01:20:15;100028.75;;;12.20;100.00
41654;BME280;68687;52.030;7.110;2023-05-10T01:25:51;100035.81;;;12.07;100.00
41654;BME280;68687;52.030;7.110;2023-05-10T01:31:49;100034.16;;;12.06;100.00
41654;BME280;68687;52.030;7.110;2023-05-10T01:34:27;100038.28;;;12.16;100.00
41654;BME280;68687;52.030;7.110;2023-05-10T01:37:06;100039.13;;;12.16;100.00
41654;BME280;68687;52.030;7.110;2023-05-10T01:42:37;100034.78;;;12.15;100.00
41654;BME280;68687;52.030;7.110;2023-05-10T01:45:22;100037.69;;;12.14;100.00
41654;BME280;68687;52.030;7.110;2023-05-10T01:47:54;100037.69;;;12.14;100.00
41654;BME280;68687;52.030;7.110;2023-05-10T01:50:27;100039.53;;;12.13;100.00
41654;BME280;68687;52.030;7.110;2023-05-10T01:52:55;100041.59;;;12.18;100.00
41654;BME280;68687;52.030;7.110;2023-05-10T01:55:25;100040.75;;;12.24;100.00
41654;BME280;68687;52.030;7.110;2023-05-10T01:58:07;100041.59;;;12.24;100.00
41654;BME280;68687;52.030;7.110;2023-05-10T02:00:34;100034.13;;;12.26;100.00
41654;BME280;68687;52.030;7.110;2023-05-10T02:03:04;100046.56;;;12.21;100.00
41654;BME280;68687;52.030;7.110;2023-05-10T02:05:32;100039.53;;;12.20;100.00
41654;BME280;68687;52.030;7.110;2023-05-10T02:07:58;100052.38;;;12.18;100.00
41654;BME280;68687;52.030;7.110;2023-05-10T02:10:27;100052.38;;;12.18;100.00
41654;BME280;68687;52.030;7.110;2023-05-10T02:12:53;100054.03;;;12.19;100.00
41654;BME280;68687;52.030;7.110;2023-05-10T02:15:23;100055.69;;;12.20;100.00
41654;BME280;68687;52.030;7.110;2023-05-10T02:17:50;100059.41;;;12.19;100.00
41654;BME280;68687;52.030;7.110;2023-05-10T02:20:18;100056.09;;;12.23;100.00
41654;BME280;68687;52.030;7.110;2023-05-10T02:22:47;100060.22;;;12.26;100.00
41654;BME280;68687;52.030;7.110;2023-05-10T02:25:14;100065.81;;;12.24;100.00
41654;BME280;68687;52.030;7.110;2023-05-10T02:27:41;100055.88;;;12.25;100.00
41654;BME280;68687;52.030;7.110;2023-05-10T02:30:07;100055.25;;;12.23;100.00
41654;BME280;68687;52.030;7.110;2023-05-10T02:32:37;100063.53;;;12.21;100.00
41654;BME280;68687;52.030;7.110;2023-05-10T02:35:03;100062.72;;;12.21;100.00
41654;BME280;68687;52.030;7.110;2023-05-10T02:37:29;100068.09;;;12.21;100.00
41654;BME280;68687;52.030;7.110;2023-05-10T02:39:56;100068.72;;;12.23;100.00
41654;BME280;68687;52.030;7.110;2023-05-10T02:42:36;100058.97;;;12.22;100.00
41654;BME280;68687;52.030;7.110;2023-05-10T02:45:10;100060.44;;;12.18;100.00
41654;BME280;68687;52.030;7.110;2023-05-10T02:47:36;100063.53;;;12.21;100.00
41654;BME280;68687;52.030;7.110;2023-05-10T02:50:05;100066.84;;;12.17;100.00
41654;BME280;68687;52.030;7.110;2023-05-10T02:52:38;100064.78;;;12.19;100.00
41654;BME280;68687;52.030;7.110;2023-05-10T02:55:05;100059.00;;;12.15;100.00
41654;BME280;68687;52.030;7.110;2023-05-10T02:57:34;100060.44;;;12.18;100.00
41654;BME280;68687;52.030;7.110;2023-05-10T03:00:04;100065.19;;;12.22;100.00
41654;BME280;68687;52.030;7.110;2023-05-10T03:02:32;100055.69;;;12.20;100.00
41654;BME280;68687;52.030;7.110;2023-05-10T03:04:58;100058.16;;;12.15;100.00
41654;BME280;68687;52.030;7.110;2023-05-10T03:07:23;100055.69;;;12.20;100.00
41654;BME280;68687;52.030;7.110;2023-05-10T03:09:49;100060.66;;;12.10;100.00
41654;BME280;68687;52.030;7.110;2023-05-10T03:12:32;100063.13;;;12.04;100.00
41654;BME280;68687;52.030;7.110;2023-05-10T03:17:55;100064.38;;;12.09;100.00
41654;BME280;68687;52.030;7.110;2023-05-10T03:20:25;100065.19;;;12.02;100.00
41654;BME280;68687;52.030;7.110;2023-05-10T03:25:57;100071.41;;;12.10;100.00
41654;BME280;68687;52.030;7.110;2023-05-10T03:28:24;100077.22;;;12.13;100.00
41654;BME280;68687;52.030;7.110;2023-05-10T03:30:52;100078.03;;;12.14;100.00
41654;BME280;68687;52.030;7.110;2023-05-10T03:33:17;100080.09;;;12.12;100.00
41654;BME280;68687;52.030;7.110;2023-05-10T03:35:43;100081.56;;;12.14;100.00
41654;BME280;68687;52.030;7.110;2023-05-10T03:38:11;100083.19;;;12.22;100.00
41654;BME280;68687;52.030;7.110;2023-05-10T03:40:36;100087.75;;;12.15;100.00
41654;BME280;68687;52.030;7.110;2023-05-10T03:43:02;100085.50;;;12.12;100.00
41654;BME280;68687;52.030;7.110;2023-05-10T03:45:27;100087.56;;;12.10;100.00
41654;BME280;68687;52.030;7.110;2023-05-10T03:47:59;100091.91;;;12.11;100.00
41654;BME280;68687;52.030;7.110;2023-05-10T03:50:24;100092.94;;;12.16;100.00
41654;BME280;68687;52.030;7.110;2023-05-10T03:52:50;100094.59;;;12.17;100.00
41654;BME280;68687;52.030;7.110;2023-05-10T03:55:18;100094.38;;;12.25;100.00
41654;BME280;68687;52.030;7.110;2023-05-10T03:57:43;100091.28;;;12.22;100.00
41654;BME280;68687;52.030;7.110;2023-05-10T04:00:09;100101.63;;;12.25;100.00
41654;BME280;68687;52.030;7.110;2023-05-10T04:02:35;100104.72;;;12.22;100.00
41654;BME280;68687;52.030;7.110;2023-05-10T04:05:00;100096.66;;;12.22;100.00
41654;BME280;68687;52.030;7.110;2023-05-10T04:07:26;100107.41;;;12.22;100.00
41654;BME280;68687;52.030;7.110;2023-05-10T04:09:51;100103.50;;;12.18;100.00
41654;BME280;68687;52.030;7.110;2023-05-10T04:12:20;100104.09;;;12.20;100.00
41654;BME280;68687;52.030;7.110;2023-05-10T04:14:45;100100.81;;;12.18;100.00
41654;BME280;68687;52.030;7.110;2023-05-10T04:17:10;100101.63;;;12.25;100.00
41654;BME280;68687;52.030;7.110;2023-05-10T04:19:36;100095.00;;;12.34;100.00
41654;BME280;68687;52.030;7.110;2023-05-10T04:22:02;100093.94;;;12.28;100.00
41654;BME280;68687;52.030;7.110;2023-05-10T04:24:27;100101.19;;;12.28;100.00
41654;BME280;68687;52.030;7.110;2023-05-10T04:26:55;100101.59;;;12.31;100.00
41654;BME280;68687;52.030;7.110;2023-05-10T04:29:24;100098.31;;;12.36;100.00
41654;BME280;68687;52.030;7.110;2023-05-10T04:31:49;100093.34;;;12.33;100.00
41654;BME280;68687;52.030;7.110;2023-05-10T04:34:34;100108.25;;;12.42;100.00
41654;BME280;68687;52.030;7.110;2023-05-10T04:36:59;100099.13;;;12.43;100.00
41654;BME280;68687;52.030;7.110;2023-05-10T04:39:24;100102.03;;;12.48;100.00
41654;BME280;68687;52.030;7.110;2023-05-10T04:41:56;100107.41;;;12.55;100.00
41654;BME280;68687;52.030;7.110;2023-05-10T04:44:21;100095.63;;;12.43;100.00
41654;BME280;68687;52.030;7.110;2023-05-10T04:46:46;100105.78;;;12.41;100.00
41654;BME280;68687;52.030;7.110;2023-05-10T04:49:11;100103.88;;;12.48;100.00
41654;BME280;68687;52.030;7.110;2023-05-10T04:51:37;100106.78;;;12.46;100.00
41654;BME280;68687;52.030;7.110;2023-05-10T04:54:02;100110.31;;;12.47;100.00
41654;BME280;68687;52.030;7.110;2023-05-10T04:56:27;100109.91;;;12.50;100.00
41654;BME280;68687;52.030;7.110;2023-05-10T04:58:55;100118.59;;;12.45;100.00
41654;BME280;68687;52.030;7.110;2023-05-10T05:01:36;100126.69;;;12.45;100.00
41654;BME280;68687;52.030;7.110;2023-05-10T05:04:01;100114.69;;;12.34;100.00
41654;BME280;68687;52.030;7.110;2023-05-10T05:06:27;100123.97;;;12.45;100.00
41654;BME280;68687;52.030;7.110;2023-05-10T05:08:52;100131.00;;;12.59;100.00
41654;BME280;68687;52.030;7.110;2023-05-10T05:11:17;100118.38;;;12.60;100.00
41654;BME280;68687;52.030;7.110;2023-05-10T05:13:43;100122.31;;;12.64;100.00
41654;BME280;68687;52.030;7.110;2023-05-10T05:16:08;100125.22;;;12.62;100.00
41654;BME280;68687;52.030;7.110;2023-05-10T05:18:34;100134.94;;;12.70;100.00
41654;BME280;68687;52.030;7.110;2023-05-10T05:20:59;100138.06;;;12.60;100.00
41654;BME280;68687;52.030;7.110;2023-05-10T05:23:24;100129.34;;;12.58;100.00
41654;BME280;68687;52.030;7.110;2023-05-10T05:26:03;100136.38;;;12.73;100.00
41654;BME280;68687;52.030;7.110;2023-05-10T05:28:34;100134.31;;;12.75;100.00
41654;BME280;68687;52.030;7.110;2023-05-10T05:31:05;100140.72;;;12.74;100.00
41654;BME280;68687;52.030;7.110;2023-05-10T05:33:31;100139.69;;;12.75;100.00
41654;BME280;68687;52.030;7.110;2023-05-10T05:35:56;100140.13;;;12.72;100.00
41654;BME280;68687;52.030;7.110;2023-05-10T05:38:24;100145.69;;;12.77;100.00
41654;BME280;68687;52.030;7.110;2023-05-10T05:40:50;100150.88;;;12.58;100.00
41654;BME280;68687;52.030;7.110;2023-05-10T05:43:15;100139.50;;;12.69;100.00
41654;BME280;68687;52.030;7.110;2023-05-10T05:45:40;100147.97;;;12.73;100.00
41654;BME280;68687;52.030;7.110;2023-05-10T05:48:08;100157.09;;;12.79;100.00
41654;BME280;68687;52.030;7.110;2023-05-10T05:50:34;100158.34;;;12.76;100.00
41654;BME280;68687;52.030;7.110;2023-05-10T05:52:59;100153.34;;;12.86;100.00
41654;BME280;68687;52.030;7.110;2023-05-10T05:55:24;100161.84;;;12.77;100.00
41654;BME280;68687;52.030;7.110;2023-05-10T05:58:00;100152.09;;;12.82;100.00
41654;BME280;68687;52.030;7.110;2023-05-10T06:00:25;100149.63;;;12.81;100.00
41654;BME280;68687;52.030;7.110;2023-05-10T06:02:54;100152.72;;;12.91;100.00
41654;BME280;68687;52.030;7.110;2023-05-10T06:05:22;100154.38;;;12.92;100.00
41654;BME280;68687;52.030;7.110;2023-05-10T06:07:47;100163.94;;;12.88;100.00
41654;BME280;68687;52.030;7.110;2023-05-10T06:10:12;100171.78;;;12.96;100.00
41654;BME280;68687;52.030;7.110;2023-05-10T06:12:38;100175.28;;;13.03;100.00
41654;BME280;68687;52.030;7.110;2023-05-10T06:15:12;100171.56;;;13.04;100.00
41654;BME280;68687;52.030;7.110;2023-05-10T06:17:37;100172.78;;;13.08;100.00
41654;BME280;68687;52.030;7.110;2023-05-10T06:20:04;100169.06;;;13.03;100.00
41654;BME280;68687;52.030;7.110;2023-05-10T06:22:29;100168.84;;;13.11;100.00
41654;BME280;68687;52.030;7.110;2023-05-10T06:24:58;100175.28;;;13.16;100.00
41654;BME280;68687;52.030;7.110;2023-05-10T06:27:23;100174.06;;;13.19;100.00
41654;BME280;68687;52.030;7.110;2023-05-10T06:29:55;100173.00;;;13.20;100.00
41654;BME280;68687;52.030;7.110;2023-05-10T06:32:24;100189.78;;;13.15;100.00
41654;BME280;68687;52.030;7.110;2023-05-10T06:34:49;100181.72;;;13.22;100.00
41654;BME280;68687;52.030;7.110;2023-05-10T06:37:14;100193.13;;;13.17;100.00
41654;BME280;68687;52.030;7.110;2023-05-10T06:39:39;100192.09;;;13.18;100.00
41654;BME280;68687;52.030;7.110;2023-05-10T06:42:05;100186.28;;;13.21;100.00
41654;BME280;68687;52.030;7.110;2023-05-10T06:44:30;100194.34;;;13.15;100.00
41654;BME280;68687;52.030;7.110;2023-05-10T06:46:59;100196.19;;;13.14;100.00
41654;BME280;68687;52.030;7.110;2023-05-10T06:49:24;100203.88;;;13.11;100.00
41654;BME280;68687;52.030;7.110;2023-05-10T06:51:49;100206.97;;;13.14;100.00
41654;BME280;68687;52.030;7.110;2023-05-10T06:54:17;100199.31;;;13.11;100.00
41654;BME280;68687;52.030;7.110;2023-05-10T06:56:43;100188.75;;;13.16;100.00
41654;BME280;68687;52.030;7.110;2023-05-10T06:59:08;100197.25;;;13.20;100.00
41654;BME280;68687;52.030;7.110;2023-05-10T07:01:33;100195.41;;;13.20;100.00
41654;BME280;68687;52.030;7.110;2023-05-10T07:03:59;100194.34;;;13.28;100.00
41654;BME280;68687;52.030;7.110;2023-05-10T07:06:27;100201.97;;;13.38;100.00
41654;BME280;68687;52.030;7.110;2023-05-10T07:08:52;100197.22;;;13.33;100.00
41654;BME280;68687;52.030;7.110;2023-05-10T07:11:18;100201.16;;;13.44;100.00
41654;BME280;68687;52.030;7.110;2023-05-10T07:13:43;100196.94;;;13.54;100.00
41654;BME280;68687;52.030;7.110;2023-05-10T07:16:11;100205.81;;;13.68;100.00
41654;BME280;68687;52.030;7.110;2023-05-10T07:18:36;100216.41;;;13.63;100.00
41654;BME280;68687;52.030;7.110;2023-05-10T07:21:01;100209.56;;;13.60;100.00
41654;BME280;68687;52.030;7.110;2023-05-10T07:23:30;100201.22;;;13.75;100.00
41654;BME280;68687;52.030;7.110;2023-05-10T07:26:05;100212.38;;;13.85;100.00
41654;BME280;68687;52.030;7.110;2023-05-10T07:28:30;100216.56;;;13.81;100.00
41654;BME280;68687;52.030;7.110;2023-05-10T07:30:56;100215.50;;;13.82;100.00
41654;BME280;68687;52.030;7.110;2023-05-10T07:33:21;100211.34;;;13.86;100.00
41654;BME280;68687;52.030;7.110;2023-05-10T07:35:47;100215.19;;;14.04;100.00
41654;BME280;68687;52.030;7.110;2023-05-10T07:38:12;100228.09;;;14.02;100.00
41654;BME280;68687;52.030;7.110;2023-05-10T07:40:39;100226.00;;;14.04;100.00
41654;BME280;68687;52.030;7.110;2023-05-10T07:43:04;100226.13;;;14.15;100.00
41654;BME280;68687;52.030;7.110;2023-05-10T07:45:33;100226.59;;;14.06;99.80
41654;BME280;68687;52.030;7.110;2023-05-10T07:47:58;100228.69;;;14.04;100.00
41654;BME280;68687;52.030;7.110;2023-05-10T07:50:23;100234.47;;;14.07;100.00
41654;BME280;68687;52.030;7.110;2023-05-10T07:52:49;100238.13;;;14.26;99.39
41654;BME280;68687;52.030;7.110;2023-05-10T07:55:14;100240.59;;;14.28;99.82
41654;BME280;68687;52.030;7.110;2023-05-10T07:57:39;100237.31;;;14.19;98.82
41654;BME280;68687;52.030;7.110;2023-05-10T08:00:06;100242.69;;;14.26;100.00
41654;BME280;68687;52.030;7.110;2023-05-10T08:02:32;100244.56;;;14.25;99.37
41654;BME280;68687;52.030;7.110;2023-05-10T08:04:57;100241.22;;;14.30;99.08
41654;BME280;68687;52.030;7.110;2023-05-10T08:07:24;100248.72;;;14.28;99.45
41654;BME280;68687;52.030;7.110;2023-05-10T08:09:52;100252.91;;;14.17;99.77
41654;BME280;68687;52.030;7.110;2023-05-10T08:12:20;100259.34;;;14.16;98.98
41654;BME280;68687;52.030;7.110;2023-05-10T08:14:45;100255.56;;;14.23;99.23
41654;BME280;68687;52.030;7.110;2023-05-10T08:17:11;100262.34;;;14.01;99.29
41654;BME280;68687;52.030;7.110;2023-05-10T08:19:36;100265.22;;;14.06;98.82
41654;BME280;68687;52.030;7.110;2023-05-10T08:22:01;100270.75;;;14.18;97.05
41654;BME280;68687;52.030;7.110;2023-05-10T08:24:27;100275.00;;;14.01;98.80
41654;BME280;68687;52.030;7.110;2023-05-10T08:26:52;100268.69;;;14.13;98.75
41654;BME280;68687;52.030;7.110;2023-05-10T08:29:17;100272.06;;;14.09;99.67
41654;BME280;68687;52.030;7.110;2023-05-10T08:31:43;100280.38;;;14.07;99.74
41654;BME280;68687;52.030;7.110;2023-05-10T08:34:08;100272.00;;;14.15;99.82
41654;BME280;68687;52.030;7.110;2023-05-10T08:36:33;100270.22;;;14.41;99.31
41654;BME280;68687;52.030;7.110;2023-05-10T08:39:04;100271.84;;;14.48;99.78
41654;BME280;68687;52.030;7.110;2023-05-10T08:41:33;100282.19;;;14.58;99.66
41654;BME280;68687;52.030;7.110;2023-05-10T08:43:59;100283.69;;;14.54;97.34
41654;BME280;68687;52.030;7.110;2023-05-10T08:46:36;100280.03;;;14.67;96.31
41654;BME280;68687;52.030;7.110;2023-05-10T08:49:06;100290.34;;;14.76;97.08
41654;BME280;68687;52.030;7.110;2023-05-10T08:51:36;100287.34;;;14.91;96.72
41654;BME280;68687;52.030;7.110;2023-05-10T08:54:04;100284.81;;;14.96;96.51
41654;BME280;68687;52.030;7.110;2023-05-10T08:56:33;100281.50;;;14.94;96.34
41654;BME280;68687;52.030;7.110;2023-05-10T08:58:58;100283.00;;;14.90;95.55
41654;BME280;68687;52.030;7.110;2023-05-10T09:01:25;100287.69;;;15.01;94.21
41654;BME280;68687;52.030;7.110;2023-05-10T09:03:55;100291.88;;;14.97;95.17
41654;BME280;68687;52.030;7.110;2023-05-10T09:06:20;100293.53;;;14.98;94.91
41654;BME280;68687;52.030;7.110;2023-05-10T09:08:49;100304.84;;;15.13;94.12
41654;BME280;68687;52.030;7.110;2023-05-10T09:11:14;100297.63;;;15.07;92.14
41654;BME280;68687;52.030;7.110;2023-05-10T09:13:41;100312.59;;;15.03;93.70
41654;BME280;68687;52.030;7.110;2023-05-10T09:16:07;100309.75;;;14.98;94.33
41654;BME280;68687;52.030;7.110;2023-05-10T09:18:32;100313.09;;;14.94;94.71
41654;BME280;68687;52.030;7.110;2023-05-10T09:21:00;100315.59;;;14.95;94.78
41654;BME280;68687;52.030;7.110;2023-05-10T09:23:26;100317.25;;;14.96;95.02
41654;BME280;68687;52.030;7.110;2023-05-10T09:26:06;100320.41;;;15.18;93.94
41654;BME280;68687;52.030;7.110;2023-05-10T09:28:33;100324.66;;;15.07;94.98
41654;BME280;68687;52.030;7.110;2023-05-10T09:30:59;100331.72;;;15.08;95.35
41654;BME280;68687;52.030;7.110;2023-05-10T09:33:25;100324.91;;;15.24;93.63
41654;BME280;68687;52.030;7.110;2023-05-10T09:35:51;100328.50;;;15.43;92.51
41654;BME280;68687;52.030;7.110;2023-05-10T09:38:26;100323.56;;;15.33;92.57
41654;BME280;68687;52.030;7.110;2023-05-10T09:40:52;100321.31;;;15.30;93.11
41654;BME280;68687;52.030;7.110;2023-05-10T09:43:37;100335.13;;;15.47;91.58
41654;BME280;68687;52.030;7.110;2023-05-10T09:46:09;100326.09;;;15.35;92.51
41654;BME280;68687;52.030;7.110;2023-05-10T09:48:41;100340.97;;;15.44;90.85
41654;BME280;68687;52.030;7.110;2023-05-10T09:51:09;100330.03;;;15.57;92.56
41654;BME280;68687;52.030;7.110;2023-05-10T09:53:35;100339.81;;;15.58;91.50
41654;BME280;68687;52.030;7.110;2023-05-10T09:56:00;100333.69;;;15.69;91.29
41654;BME280;68687;52.030;7.110;2023-05-10T09:58:36;100328.34;;;15.63;90.16
41654;BME280;68687;52.030;7.110;2023-05-10T10:01:03;100337.66;;;15.85;89.64
41654;BME280;68687;52.030;7.110;2023-05-10T10:03:28;100336.25;;;15.64;89.98
41654;BME280;68687;52.030;7.110;2023-05-10T10:05:55;100337.81;;;15.72;91.44
41654;BME280;68687;52.030;7.110;2023-05-10T10:08:21;100328.72;;;15.66;91.54
41654;BME280;68687;52.030;7.110;2023-05-10T10:10:46;100338.66;;;15.72;92.64
41654;BME280;68687;52.030;7.110;2023-05-10T10:13:12;100346.00;;;15.84;90.09
41654;BME280;68687;52.030;7.110;2023-05-10T10:15:39;100341.06;;;15.81;90.67
41654;BME280;68687;52.030;7.110;2023-05-10T10:18:05;100337.81;;;15.72;89.72
41654;BME280;68687;52.030;7.110;2023-05-10T10:20:30;100346.00;;;15.84;90.72
41654;BME280;68687;52.030;7.110;2023-05-10T10:22:56;100346.84;;;15.84;89.31
41654;BME280;68687;52.030;7.110;2023-05-10T10:25:21;100353.06;;;15.85;89.60
41654;BME280;68687;52.030;7.110;2023-05-10T10:28:05;100350.69;;;16.13;89.56
41654;BME280;68687;52.030;7.110;2023-05-10T10:30:48;100349.34;;;16.22;88.04
41654;BME280;68687;52.030;7.110;2023-05-10T10:33:28;100354.91;;;16.09;89.06
41654;BME280;68687;52.030;7.110;2023-05-10T10:35:59;100353.16;;;16.33;87.78
41654;BME280;68687;52.030;7.110;2023-05-10T10:38:25;100350.69;;;16.80;87.53
41654;BME280;68687;52.030;7.110;2023-05-10T10:41:09;100349.28;;;16.89;85.47
41654;BME280;68687;52.030;7.110;2023-05-10T10:43:34;100342.78;;;16.78;85.52
41654;BME280;68687;52.030;7.110;2023-05-10T10:46:18;100343.97;;;16.82;86.39
41654;BME280;68687;52.030;7.110;2023-05-10T10:49:09;100350.16;;;17.01;85.46
41654;BME280;68687;52.030;7.110;2023-05-10T10:51:38;100356.13;;;16.91;85.70
41654;BME280;68687;52.030;7.110;2023-05-10T10:54:10;100345.88;;;16.93;82.00
41654;BME280;68687;52.030;7.110;2023-05-10T10:56:36;100346.84;;;16.69;82.77
41654;BME280;68687;52.030;7.110;2023-05-10T10:59:04;100348.72;;;16.68;83.51
41654;BME280;68687;52.030;7.110;2023-05-10T11:01:35;100352.59;;;16.91;82.76
41654;BME280;68687;52.030;7.110;2023-05-10T11:06:30;100355.00;;;17.11;83.78
41654;BME280;68687;52.030;7.110;2023-05-10T11:09:06;100356.22;;;17.26;80.95
41654;BME280;68687;52.030;7.110;2023-05-10T11:11:32;100355.63;;;17.36;78.74
41654;BME280;68687;52.030;7.110;2023-05-10T11:14:06;100361.22;;;17.88;78.53
41654;BME280;68687;52.030;7.110;2023-05-10T11:17:01;100368.28;;;17.77;79.30
41654;BME280;68687;52.030;7.110;2023-05-10T11:19:29;100358.63;;;17.81;77.00
41654;BME280;68687;52.030;7.110;2023-05-10T11:24:29;100359.53;;;17.64;75.96
41654;BME280;68687;52.030;7.110;2023-05-10T11:26:57;100365.06;;;17.45;77.35
41654;BME280;68687;52.030;7.110;2023-05-10T11:29:26;100362.66;;;18.31;76.85
41654;BME280;68687;52.030;7.110;2023-05-10T11:31:57;100365.09;;;18.44;73.34
41654;BME280;68687;52.030;7.110;2023-05-10T11:34:28;100365.19;;;18.09;73.25
41654;BME280;68687;52.030;7.110;2023-05-10T11:36:55;100358.66;;;18.21;72.26
41654;BME280;68687;52.030;7.110;2023-05-10T11:39:25;100363.41;;;18.54;73.97
41654;BME280;68687;52.030;7.110;2023-05-10T11:41:58;100366.47;;;18.87;73.02
41654;BME280;68687;52.030;7.110;2023-05-10T11:44:35;100361.34;;;18.73;73.07
41654;BME280;68687;52.030;7.110;2023-05-10T11:47:05;100365.81;;;18.79;71.03
41654;BME280;68687;52.030;7.110;2023-05-10T11:49:30;100375.47;;;18.47;71.19
41654;BME280;68687;52.030;7.110;2023-05-10T11:52:08;100376.03;;;18.72;72.66
41654;BME280;68687;52.030;7.110;2023-05-10T11:54:34;100379.28;;;19.03;71.64
41654;BME280;68687;52.030;7.110;2023-05-10T11:57:00;100378.06;;;18.94;69.91
41654;BME280;68687;52.030;7.110;2023-05-10T11:59:28;100375.59;;;19.09;70.22
41654;BME280;68687;52.030;7.110;2023-05-10T12:01:53;100376.34;;;19.21;68.76
41654;BME280;68687;52.030;7.110;2023-05-10T12:04:28;100384.53;;;19.21;66.82
41654;BME280;68687;52.030;7.110;2023-05-10T12:06:54;100390.91;;;19.15;68.69
41654;BME280;68687;52.030;7.110;2023-05-10T12:09:19;100400.56;;;18.37;70.57
41654;BME280;68687;52.030;7.110;2023-05-10T12:11:45;100402.41;;;18.08;74.50
41654;BME280;68687;52.030;7.110;2023-05-10T12:14:10;100403.75;;;17.52;77.43
41654;BME280;68687;52.030;7.110;2023-05-10T12:16:36;100405.66;;;17.52;77.49
41654;BME280;68687;52.030;7.110;2023-05-10T12:19:01;100408.19;;;17.12;79.08
41654;BME280;68687;52.030;7.110;2023-05-10T12:21:28;100412.53;;;17.01;81.81
41654;BME280;68687;52.030;7.110;2023-05-10T12:23:59;100416.72;;;16.67;83.45
41654;BME280;68687;52.030;7.110;2023-05-10T12:26:25;100409.19;;;16.69;80.21
41654;BME280;68687;52.030;7.110;2023-05-10T12:28:55;100412.88;;;16.75;80.21
41654;BME280;68687;52.030;7.110;2023-05-10T12:31:55;100419.78;;;16.89;80.00
41654;BME280;68687;52.030;7.110;2023-05-10T12:34:31;100418.72;;;16.90;79.92
41654;BME280;68687;52.030;7.110;2023-05-10T12:36:57;100419.41;;;16.85;79.48
41654;BME280;68687;52.030;7.110;2023-05-10T12:39:23;100429.22;;;16.68;78.52
41654;BME280;68687;52.030;7.110;2023-05-10T12:41:49;100429.41;;;16.85;76.83
41654;BME280;68687;52.030;7.110;2023-05-10T12:44:23;100423.63;;;16.81;78.35
41654;BME280;68687;52.030;7.110;2023-05-10T12:46:49;100425.88;;;16.84;77.51
41654;BME280;68687;52.030;7.110;2023-05-10T12:49:14;100439.00;;;16.69;77.39
41654;BME280;68687;52.030;7.110;2023-05-10T12:51:39;100441.66;;;16.76;78.27
41654;BME280;68687;52.030;7.110;2023-05-10T12:54:05;100438.22;;;16.62;77.75
41654;BME280;68687;52.030;7.110;2023-05-10T12:56:30;100440.47;;;16.65;78.30
41654;BME280;68687;52.030;7.110;2023-05-10T12:58:56;100431.03;;;16.74;78.37
41654;BME280;68687;52.030;7.110;2023-05-10T13:01:21;100426.56;;;16.80;78.33
41654;BME280;68687;52.030;7.110;2023-05-10T13:03:49;100426.13;;;16.83;78.03
41654;BME280;68687;52.030;7.110;2023-05-10T13:06:18;100435.03;;;17.02;77.64
41654;BME280;68687;52.030;7.110;2023-05-10T13:08:43;100430.34;;;17.09;75.31